Ajlune, Washington
Current Conditions -  °F | °C
As of 3:55 AM on Tuesday 21 Oct 2014 (Local Time) from KCLS Reporting Station
NA  
Wind Chill: 55°   Ceiling: NA
Heat Index: 55°   Visibility: 10mi
Dew Point: 54°   Wind: 9mph
Humidity: 94%   Direction: 190°S
Pressure: 29.85"   Gusts: NA
Location:  46.4493°N, 122.435°W
Report Text: KCLS 211055Z AUTO 19008KT 10SM 13/12 A2985 RMK AO2
Loading
Personal Weather Stations






























Interactive Weather Map
Tropical Storm Tracking
New forecast layout! Learn more

10-Day Weather Forecast

Advertisements
Track Severe Weather on mobile